createdAt,value
2023-02-14T00:01:24.614Z,43.50
2023-02-14T00:03:52.013Z,45.40
2023-02-14T00:06:19.427Z,45.40
2023-02-14T00:33:06.717Z,56.40
2023-02-14T00:35:38.432Z,50.10
2023-02-14T00:38:05.922Z,54.80
2023-02-14T00:40:33.387Z,53.70
2023-02-14T00:43:00.889Z,50.10
2023-02-14T00:45:28.262Z,52.10
2023-02-14T00:47:55.720Z,54.10
2023-02-14T00:50:23.086Z,52.70
2023-02-14T00:52:50.503Z,51.30
2023-02-14T00:55:18.104Z,52.00
2023-02-14T00:57:45.463Z,50.40
2023-02-14T01:00:13.794Z,54.90
2023-02-14T01:02:41.295Z,50.10
2023-02-14T01:05:08.707Z,54.30
2023-02-14T01:07:36.112Z,55.40
2023-02-14T01:10:03.782Z,54.00
2023-02-14T01:12:31.148Z,50.90
2023-02-14T01:14:58.725Z,53.40
2023-02-14T01:17:26.225Z,46.70
2023-02-14T01:19:54.379Z,54.40
2023-02-14T01:22:21.809Z,50.90
2023-02-14T01:24:49.227Z,54.90
2023-02-14T01:27:16.686Z,57.70
2023-02-14T01:29:44.118Z,55.80
2023-02-14T01:32:11.542Z,57.10
2023-02-14T01:34:39.005Z,56.80
2023-02-14T01:37:06.378Z,52.60
2023-02-14T01:39:33.754Z,53.10
2023-02-14T01:42:01.215Z,61.10
2023-02-14T01:44:28.489Z,59.50
2023-02-14T01:46:56.597Z,58.90
2023-02-14T01:49:36.492Z,53.70
2023-02-14T01:52:08.823Z,58.80
2023-02-14T01:54:44.863Z,52.70
2023-02-14T01:57:16.491Z,53.90
2023-02-14T01:59:54.255Z,58.70
2023-02-14T02:02:23.954Z,56.30
2023-02-14T02:04:55.961Z,56.70
2023-02-14T02:07:26.365Z,60.60
2023-02-14T02:09:58.786Z,56.10
2023-02-14T02:12:26.565Z,56.80
2023-02-14T02:14:56.433Z,57.40
2023-02-14T02:17:37.467Z,59.90
2023-02-14T02:20:29.031Z,51.60
2023-02-14T02:23:08.566Z,57.00
2023-02-14T02:25:57.864Z,54.70
2023-02-14T02:29:45.311Z,54.10
2023-02-14T02:33:07.021Z,64.00
2023-02-14T02:36:01.567Z,58.50
2023-02-14T02:39:24.768Z,58.70
2023-02-14T02:42:06.204Z,54.00
2023-02-14T02:45:09.958Z,61.40
2023-02-14T02:48:10.059Z,57.60
2023-02-14T02:51:00.886Z,58.90
2023-02-14T02:53:33.194Z,63.60
2023-02-14T02:56:44.483Z,56.80
2023-02-14T02:59:30.054Z,52.30
2023-02-14T03:02:17.745Z,52.30
2023-02-14T03:04:55.249Z,59.00
2023-02-14T03:07:39.813Z,57.90
2023-02-14T03:10:20.739Z,54.90
2023-02-14T03:13:22.095Z,58.70
2023-02-14T03:16:03.738Z,58.90
2023-02-14T03:19:29.087Z,56.90
2023-02-14T03:22:22.094Z,55.30
2023-02-14T03:25:09.463Z,57.40
2023-02-14T03:28:09.689Z,53.70
2023-02-14T03:30:56.672Z,55.90
2023-02-14T03:33:32.447Z,55.60
2023-02-14T03:36:31.008Z,59.80
2023-02-14T03:39:14.312Z,58.00
2023-02-14T03:41:51.665Z,55.00
2023-02-14T03:44:22.955Z,54.00
2023-02-14T03:47:04.669Z,60.30
2023-02-14T03:49:40.768Z,63.20
2023-02-14T03:52:10.266Z,55.90
2023-02-14T03:54:37.797Z,55.90
2023-02-14T03:57:16.750Z,56.50
2023-02-14T03:59:44.452Z,58.70
2023-02-14T04:02:42.140Z,55.90
2023-02-14T04:05:22.257Z,58.90
2023-02-14T04:07:54.011Z,62.20
2023-02-14T04:10:22.814Z,61.50
2023-02-14T04:12:50.918Z,60.50
2023-02-14T04:15:18.852Z,59.30
2023-02-14T04:18:04.674Z,61.40
2023-02-14T04:20:32.198Z,59.50
2023-02-14T04:23:02.285Z,61.60
2023-02-14T04:25:31.072Z,60.50
2023-02-14T04:27:58.491Z,61.10
2023-02-14T04:30:25.937Z,60.00
2023-02-14T04:32:53.315Z,57.10
2023-02-14T04:35:20.935Z,56.40
2023-02-14T04:37:48.316Z,60.40
2023-02-14T04:40:18.699Z,57.80
2023-02-14T04:42:47.230Z,59.20
2023-02-14T04:45:14.975Z,60.30
2023-02-14T04:47:42.375Z,55.30
2023-02-14T04:50:13.357Z,59.50
2023-02-14T04:52:41.258Z,57.50
2023-02-14T04:55:10.462Z,63.50
2023-02-14T04:57:37.955Z,63.40
2023-02-14T05:00:06.754Z,64.80
2023-02-14T05:02:34.208Z,65.30
2023-02-14T05:05:01.726Z,64.10
2023-02-14T05:07:29.172Z,61.40
2023-02-14T05:09:56.560Z,63.80
2023-02-14T05:12:24.183Z,56.00
2023-02-14T05:14:51.618Z,60.70
2023-02-14T05:17:18.990Z,62.70
2023-02-14T05:19:46.460Z,60.00
2023-02-14T05:22:13.820Z,60.50
2023-02-14T05:24:41.216Z,66.50
2023-02-14T05:27:11.643Z,64.70
2023-02-14T05:29:39.057Z,63.50
2023-02-14T05:32:06.741Z,64.70
2023-02-14T05:34:34.552Z,58.70
2023-02-14T05:37:03.324Z,58.30
2023-02-14T05:39:30.686Z,60.00
2023-02-14T05:41:59.419Z,58.90
2023-02-14T05:44:27.030Z,59.30
2023-02-14T05:46:55.513Z,61.50
2023-02-14T05:49:22.877Z,61.40
2023-02-14T05:51:50.263Z,61.00
2023-02-14T05:54:17.593Z,66.40
2023-02-14T05:56:44.960Z,63.10
2023-02-14T05:59:14.184Z,65.50
2023-02-14T06:01:41.628Z,64.10
2023-02-14T06:04:09.069Z,60.30
2023-02-14T06:06:36.880Z,67.50
2023-02-14T06:09:04.531Z,61.20
2023-02-14T06:11:32.054Z,65.90
2023-02-14T06:13:59.457Z,66.60
2023-02-14T06:16:26.853Z,63.30
2023-02-14T06:18:54.314Z,66.90
2023-02-14T06:21:21.771Z,65.20
2023-02-14T06:23:49.154Z,63.00
2023-02-14T06:26:16.507Z,65.70
2023-02-14T06:28:43.982Z,69.90
2023-02-14T06:31:18.455Z,70.70
2023-02-14T06:33:45.889Z,69.20
2023-02-14T06:36:13.477Z,74.70
2023-02-14T06:38:41.477Z,75.30
2023-02-14T06:41:11.333Z,78.50
2023-02-14T06:43:41.331Z,74.70
2023-02-14T06:46:08.913Z,78.20
2023-02-14T06:48:36.625Z,77.90
2023-02-14T06:51:04.339Z,78.80
2023-02-14T06:53:31.961Z,72.50
2023-02-14T06:55:59.419Z,69.30
2023-02-14T06:58:26.913Z,77.30
2023-02-14T07:00:59.367Z,76.40
2023-02-14T07:03:28.781Z,75.20
2023-02-14T07:05:58.010Z,65.70
2023-02-14T07:08:26.411Z,57.60
2023-02-14T07:10:58.878Z,56.10
2023-02-14T07:13:26.713Z,57.50
2023-02-14T07:15:54.655Z,55.30
2023-02-14T07:18:22.162Z,57.90
2023-02-14T07:20:53.068Z,54.50
2023-02-14T07:23:20.505Z,55.60
2023-02-14T07:25:48.141Z,52.20
2023-02-14T07:28:15.687Z,59.60
2023-02-14T07:30:43.274Z,62.50
2023-02-14T07:33:10.720Z,54.70
2023-02-14T07:35:38.168Z,56.30
2023-02-14T07:38:05.677Z,54.60
2023-02-14T07:40:33.201Z,59.40
2023-02-14T07:43:01.018Z,60.90
2023-02-14T07:45:28.652Z,57.10
2023-02-14T07:47:56.101Z,57.60
2023-02-14T07:50:23.853Z,55.40
2023-02-14T07:52:51.342Z,60.90
2023-02-14T07:55:19.442Z,58.70
2023-02-14T07:57:50.067Z,61.60
2023-02-14T08:00:18.764Z,67.10
2023-02-14T08:02:46.324Z,64.00
2023-02-14T08:05:14.895Z,58.00
2023-02-14T08:07:43.994Z,65.20
2023-02-14T08:10:13.094Z,53.90
2023-02-14T08:12:59.094Z,61.70
2023-02-14T08:15:53.759Z,63.10
2023-02-14T08:18:25.475Z,65.60
2023-02-14T08:20:52.988Z,61.20
2023-02-14T08:23:21.458Z,66.70
2023-02-14T08:25:50.194Z,67.80
2023-02-14T08:28:18.423Z,58.40
2023-02-14T08:30:46.614Z,65.90
2023-02-14T08:33:14.015Z,69.80
2023-02-14T08:35:41.405Z,57.00
2023-02-14T08:38:08.851Z,65.50
2023-02-14T08:40:37.376Z,64.00
2023-02-14T08:43:06.864Z,63.70
2023-02-14T08:45:34.286Z,58.00
2023-02-14T08:48:10.092Z,60.70
2023-02-14T08:50:38.878Z,65.30
2023-02-14T08:53:09.124Z,60.50
2023-02-14T08:55:37.322Z,64.80
2023-02-14T08:58:06.358Z,66.60
2023-02-14T09:00:34.286Z,65.40
2023-02-14T09:03:02.171Z,63.80
2023-02-14T09:05:29.884Z,61.50
2023-02-14T09:07:57.481Z,66.30
2023-02-14T09:10:26.605Z,62.80
2023-02-14T09:12:54.818Z,60.30
2023-02-14T09:15:22.223Z,58.30
2023-02-14T09:17:51.165Z,67.20
2023-02-14T09:20:18.707Z,64.10
2023-02-14T09:22:48.584Z,64.60
2023-02-14T09:25:17.448Z,66.20
2023-02-14T09:27:44.935Z,62.20
2023-02-14T09:30:13.473Z,63.30
2023-02-14T09:32:40.920Z,59.30
2023-02-14T09:35:08.519Z,64.50
2023-02-14T09:37:54.828Z,65.20
2023-02-14T09:40:22.994Z,67.50
2023-02-14T09:43:04.122Z,58.30
2023-02-14T09:45:34.257Z,59.10
2023-02-14T09:48:20.078Z,64.20
2023-02-14T09:50:56.046Z,60.30
2023-02-14T09:53:30.682Z,59.80
2023-02-14T09:56:14.098Z,65.90
2023-02-14T09:59:12.532Z,62.20
2023-02-14T10:01:46.184Z,61.40
2023-02-14T10:04:23.184Z,63.30
2023-02-14T10:07:38.094Z,63.30
2023-02-14T10:10:25.971Z,61.00
2023-02-14T10:13:06.015Z,58.90
2023-02-14T10:15:40.436Z,58.70
2023-02-14T10:18:22.850Z,56.20
2023-02-14T10:20:59.267Z,58.80
2023-02-14T10:23:50.797Z,54.50
2023-02-14T10:26:28.330Z,62.40
2023-02-14T10:28:56.341Z,59.30
2023-02-14T10:31:55.906Z,59.00
2023-02-14T10:34:40.281Z,60.10
2023-02-14T10:37:32.572Z,58.20
2023-02-14T10:40:44.312Z,55.90
2023-02-14T10:46:43.117Z,56.50
2023-02-14T10:49:51.226Z,50.30
2023-02-14T10:52:43.921Z,54.30
2023-02-14T10:55:31.556Z,56.80
2023-02-14T10:58:04.374Z,57.50
2023-02-14T11:00:38.037Z,50.50
2023-02-14T11:03:09.547Z,53.30
2023-02-14T11:05:49.077Z,51.70
2023-02-14T11:08:26.096Z,55.70
2023-02-14T11:11:24.606Z,52.80
2023-02-14T11:13:52.210Z,53.90
2023-02-14T11:16:40.030Z,54.50
2023-02-14T11:19:28.707Z,57.90
2023-02-14T11:21:59.375Z,53.90
2023-02-14T11:24:33.214Z,56.80
2023-02-14T11:27:16.400Z,54.70
2023-02-14T11:29:52.451Z,57.00
2023-02-14T11:32:26.323Z,52.50
2023-02-14T11:35:18.003Z,46.40
2023-02-14T11:37:56.776Z,51.30
2023-02-14T11:40:37.749Z,45.90
2023-02-14T11:43:14.253Z,48.40
2023-02-14T11:45:46.352Z,50.10
2023-02-14T11:48:37.203Z,46.60
2023-02-14T11:51:14.591Z,46.90
2023-02-14T11:53:54.895Z,47.10
2023-02-14T11:56:25.780Z,45.90
2023-02-14T11:59:00.792Z,44.90
2023-02-14T12:01:40.548Z,44.80
2023-02-14T12:04:18.666Z,47.40
2023-02-14T12:06:46.416Z,46.00
2023-02-14T12:09:22.915Z,47.40
2023-02-14T12:12:15.517Z,46.40
2023-02-14T12:14:42.987Z,52.40
2023-02-14T12:17:33.993Z,46.00
2023-02-14T12:20:20.044Z,45.60
2023-02-14T12:23:01.074Z,47.10
2023-02-14T12:25:44.549Z,44.40
2023-02-14T12:28:34.778Z,45.40
2023-02-14T12:31:02.560Z,47.50
2023-02-14T12:33:30.244Z,42.50
2023-02-14T12:36:19.166Z,40.10
2023-02-14T12:38:55.627Z,40.50
2023-02-14T12:41:31.993Z,46.90
2023-02-14T12:44:49.956Z,43.30
2023-02-14T12:47:21.741Z,41.10
2023-02-14T12:50:22.506Z,44.30
2023-02-14T12:53:41.125Z,42.10
2023-02-14T12:56:33.267Z,42.50
2023-02-14T12:59:16.347Z,39.30
2023-02-14T13:02:28.061Z,38.90
2023-02-14T13:05:05.821Z,38.50
2023-02-14T13:08:00.312Z,38.70
2023-02-14T13:10:55.144Z,42.20
2023-02-14T13:13:28.604Z,38.70
2023-02-14T13:16:18.709Z,40.70
2023-02-14T13:18:50.156Z,43.70
2023-02-14T13:21:24.695Z,43.40
2023-02-14T13:23:59.178Z,43.10
2023-02-14T13:26:36.101Z,41.70
2023-02-14T13:29:13.956Z,46.00
2023-02-14T13:31:42.403Z,41.10
2023-02-14T13:34:34.143Z,39.30
2023-02-14T13:37:06.832Z,40.90
2023-02-14T13:39:39.609Z,43.60
2023-02-14T13:42:07.786Z,39.20
2023-02-14T13:44:50.113Z,42.40
2023-02-14T13:47:22.707Z,42.60
2023-02-14T13:50:02.242Z,42.40
2023-02-14T13:52:48.050Z,41.60
2023-02-14T13:55:35.629Z,45.50
2023-02-14T13:58:07.331Z,41.80
2023-02-14T14:00:46.964Z,42.90
2023-02-14T14:03:39.149Z,41.30
2023-02-14T14:06:11.644Z,43.00
2023-02-14T14:08:46.025Z,42.40
2023-02-14T14:11:22.274Z,40.00
2023-02-14T14:13:58.300Z,41.00
2023-02-14T14:16:27.915Z,42.20
2023-02-14T14:19:09.250Z,40.60
2023-02-14T14:21:40.039Z,40.50
2023-02-14T14:25:05.397Z,41.50
2023-02-14T14:27:41.018Z,42.80
2023-02-14T14:30:44.788Z,41.00
2023-02-14T14:33:32.506Z,36.90
2023-02-14T14:36:11.259Z,40.30
2023-02-14T14:38:51.271Z,39.50
2023-02-14T14:41:18.715Z,38.50
2023-02-14T14:43:47.442Z,36.60
2023-02-14T14:46:16.448Z,38.50
2023-02-14T14:48:49.317Z,39.50
2023-02-14T14:51:31.804Z,34.30
2023-02-14T14:54:07.506Z,34.70
2023-02-14T14:56:39.829Z,36.80
2023-02-14T14:59:43.444Z,37.40
2023-02-14T15:02:26.927Z,35.90
2023-02-14T15:04:54.278Z,35.50
2023-02-14T15:07:37.915Z,36.60
2023-02-14T15:10:23.293Z,33.50
2023-02-14T15:13:10.569Z,35.00
2023-02-14T15:15:38.258Z,36.40
2023-02-14T15:18:07.737Z,32.40
2023-02-14T15:20:36.898Z,33.40
2023-02-14T15:23:04.936Z,36.30
2023-02-14T15:25:35.876Z,34.70
2023-02-14T15:28:03.503Z,31.70
2023-02-14T15:30:37.812Z,31.40
2023-02-14T15:33:07.489Z,34.90
2023-02-14T15:35:42.214Z,34.20
2023-02-14T15:38:12.333Z,31.50
2023-02-14T15:40:40.402Z,33.10
2023-02-14T15:43:22.000Z,33.70
2023-02-14T15:45:52.949Z,30.40
2023-02-14T15:48:33.960Z,36.90
2023-02-14T15:51:04.798Z,31.20
2023-02-14T15:53:58.478Z,33.80
2023-02-14T15:56:45.904Z,33.90
2023-02-14T15:59:20.693Z,27.00
2023-02-14T16:01:58.907Z,27.30
2023-02-14T16:04:30.483Z,29.00
2023-02-14T16:07:26.122Z,29.70
2023-02-14T16:10:24.641Z,29.30
2023-02-14T16:13:03.672Z,30.60
2023-02-14T16:15:35.033Z,33.20
2023-02-14T16:18:08.323Z,31.80
2023-02-14T16:20:35.696Z,27.80
2023-02-14T16:23:17.994Z,27.50
2023-02-14T16:25:45.919Z,26.30
2023-02-14T16:28:14.174Z,29.30
2023-02-14T16:30:43.301Z,27.20
2023-02-14T16:33:22.152Z,30.20
2023-02-14T16:35:50.148Z,26.50
2023-02-14T16:38:20.196Z,28.60
2023-02-14T16:40:52.503Z,28.80
2023-02-14T16:43:21.625Z,29.50
2023-02-14T16:45:49.322Z,30.40
2023-02-14T16:48:16.736Z,32.90
2023-02-14T16:50:45.470Z,29.10
2023-02-14T16:53:24.429Z,30.30
2023-02-14T16:55:54.504Z,31.60
2023-02-14T16:58:26.101Z,31.90
2023-02-14T17:00:53.632Z,29.00
2023-02-14T17:03:21.133Z,31.90
2023-02-14T17:05:48.610Z,26.90
2023-02-14T17:08:16.746Z,32.20
2023-02-14T17:10:48.131Z,30.20
2023-02-14T17:13:26.458Z,35.10
2023-02-14T17:15:54.391Z,34.60
2023-02-14T17:18:24.778Z,28.90
2023-02-14T17:20:52.615Z,31.90
2023-02-14T17:23:20.873Z,30.10
2023-02-14T17:25:48.435Z,29.50
2023-02-14T17:28:16.263Z,28.20
2023-02-14T17:30:43.632Z,30.30
2023-02-14T17:33:11.191Z,28.80
2023-02-14T17:35:38.589Z,27.40
2023-02-14T17:38:06.092Z,25.60
2023-02-14T17:40:33.664Z,27.50
2023-02-14T17:43:01.306Z,29.40
2023-02-14T17:45:28.735Z,27.60
2023-02-14T17:47:56.369Z,27.40
2023-02-14T17:50:23.849Z,29.60
2023-02-14T17:52:57.586Z,29.50
2023-02-14T17:55:25.181Z,31.50
2023-02-14T17:57:55.881Z,29.70
2023-02-14T18:00:24.369Z,28.80
2023-02-14T18:02:51.859Z,26.10
2023-02-14T18:05:19.385Z,31.60
2023-02-14T18:07:46.781Z,33.10
2023-02-14T18:10:14.280Z,29.20
2023-02-14T18:12:41.679Z,33.80
2023-02-14T18:15:10.017Z,35.60
2023-02-14T18:17:37.739Z,33.70
2023-02-14T18:20:06.401Z,31.30
2023-02-14T18:22:33.850Z,30.90
2023-02-14T18:25:01.303Z,32.00
2023-02-14T18:27:28.873Z,30.10
2023-02-14T18:29:56.336Z,28.80
2023-02-14T18:32:23.726Z,34.20
2023-02-14T18:34:52.407Z,35.70
2023-02-14T18:37:19.875Z,36.10
2023-02-14T18:39:50.161Z,30.50
2023-02-14T18:42:17.591Z,30.50
2023-02-14T18:44:45.084Z,32.70
2023-02-14T18:47:12.538Z,33.10
2023-02-14T18:49:39.947Z,35.60
2023-02-14T18:52:07.359Z,34.60
2023-02-14T18:54:35.718Z,31.30
2023-02-14T18:57:03.259Z,32.50
2023-02-14T18:59:30.706Z,32.90
2023-02-14T19:01:58.127Z,32.20
2023-02-14T19:04:25.538Z,33.00
2023-02-14T19:06:52.990Z,31.50
2023-02-14T19:09:20.537Z,35.20
2023-02-14T19:11:48.031Z,33.80
2023-02-14T19:14:15.454Z,34.40
2023-02-14T19:16:53.377Z,36.10
2023-02-14T19:19:22.939Z,33.60
2023-02-14T19:21:50.837Z,35.90
2023-02-14T19:24:19.806Z,38.10
2023-02-14T19:26:47.331Z,36.90
2023-02-14T19:29:18.235Z,39.40
2023-02-14T19:31:55.396Z,41.00
2023-02-14T19:34:28.888Z,36.70
2023-02-14T19:37:00.479Z,37.70
2023-02-14T19:39:31.661Z,41.60
2023-02-14T19:42:00.530Z,40.20
2023-02-14T19:44:29.289Z,34.70
2023-02-14T19:47:00.011Z,34.20
2023-02-14T19:49:29.197Z,35.70
2023-02-14T19:51:57.363Z,35.00
2023-02-14T19:54:25.751Z,34.60
2023-02-14T19:56:53.999Z,38.50
2023-02-14T19:59:22.800Z,42.90
2023-02-14T20:01:53.338Z,37.40
2023-02-14T20:04:27.640Z,40.80
2023-02-14T20:06:56.155Z,41.90
2023-02-14T20:09:24.062Z,42.60
2023-02-14T20:11:57.180Z,42.60
2023-02-14T20:14:28.401Z,39.60
2023-02-14T20:16:59.377Z,37.20
2023-02-14T20:19:30.408Z,39.70
2023-02-14T20:21:58.321Z,37.10
2023-02-14T20:24:30.771Z,40.50
2023-02-14T20:27:00.389Z,37.90
2023-02-14T20:29:28.211Z,39.70
2023-02-14T20:31:59.767Z,39.80
2023-02-14T20:34:27.484Z,36.90
2023-02-14T20:36:55.967Z,40.50
2023-02-14T20:39:34.893Z,38.40
2023-02-14T20:42:03.047Z,40.70
2023-02-14T20:44:31.063Z,42.00
2023-02-14T20:46:58.707Z,38.30
2023-02-14T20:49:28.743Z,40.20
2023-02-14T20:51:56.812Z,42.10
2023-02-14T20:54:28.070Z,39.50
2023-02-14T20:56:57.907Z,40.80
2023-02-14T20:59:28.967Z,38.80
2023-02-14T21:01:58.710Z,42.90
2023-02-14T21:04:27.703Z,39.70
2023-02-14T21:06:57.637Z,37.00
2023-02-14T21:09:25.092Z,44.40
2023-02-14T21:11:53.980Z,47.00
2023-02-14T21:14:21.604Z,38.00
2023-02-14T21:16:49.209Z,44.90
2023-02-14T21:19:17.769Z,40.90
2023-02-14T21:21:45.747Z,41.40
2023-02-14T21:24:15.887Z,43.10
2023-02-14T21:26:44.395Z,43.30
2023-02-14T21:29:12.150Z,45.70
2023-02-14T21:31:40.097Z,41.30
2023-02-14T21:34:07.717Z,46.50
2023-02-14T21:36:38.054Z,42.60
2023-02-14T21:39:07.201Z,41.70
2023-02-14T21:41:36.425Z,43.00
2023-02-14T21:44:05.310Z,42.50
2023-02-14T21:46:36.920Z,43.20
2023-02-14T21:49:24.463Z,45.20
2023-02-14T21:51:52.311Z,43.20
2023-02-14T21:54:19.928Z,37.00
2023-02-14T21:56:49.325Z,41.30
2023-02-14T21:59:16.777Z,41.20
2023-02-14T22:01:44.373Z,44.20
2023-02-14T22:04:12.920Z,42.80
2023-02-14T22:06:42.110Z,45.60
2023-02-14T22:09:12.462Z,42.70
2023-02-14T22:11:40.581Z,42.60
2023-02-14T22:14:08.433Z,50.70
2023-02-14T22:16:36.954Z,46.50
2023-02-14T22:19:08.693Z,45.30
2023-02-14T22:21:36.311Z,45.30
2023-02-14T22:24:04.453Z,42.60
2023-02-14T22:26:38.622Z,45.60
2023-02-14T22:29:09.258Z,44.50
2023-02-14T22:31:40.596Z,46.60
2023-02-14T22:36:37.571Z,45.40
2023-02-14T22:39:05.890Z,43.30
2023-02-14T22:41:37.797Z,45.00
2023-02-14T22:44:06.132Z,45.30
2023-02-14T22:46:36.742Z,47.70
2023-02-14T22:49:06.294Z,46.40
2023-02-14T22:51:35.729Z,45.40
2023-02-14T22:54:13.688Z,46.60
2023-02-14T22:56:44.763Z,44.70
2023-02-14T22:59:24.899Z,45.80
2023-02-14T23:01:53.650Z,50.10
2023-02-14T23:04:23.145Z,49.50
2023-02-14T23:06:53.887Z,45.90
2023-02-14T23:09:22.520Z,44.70
2023-02-14T23:11:51.109Z,47.10
2023-02-14T23:14:37.845Z,46.30
2023-02-14T23:17:06.509Z,45.00
2023-02-14T23:19:54.278Z,46.10
2023-02-14T23:22:28.615Z,49.00
2023-02-14T23:24:59.717Z,49.60
2023-02-14T23:27:43.608Z,49.80
2023-02-14T23:30:17.829Z,50.20
2023-02-14T23:32:45.415Z,46.60
2023-02-14T23:35:13.413Z,50.70
2023-02-14T23:37:41.764Z,43.90
2023-02-14T23:40:10.078Z,49.80
2023-02-14T23:42:37.625Z,45.40
2023-02-14T23:45:24.185Z,47.40
2023-02-14T23:47:51.599Z,47.70
2023-02-14T23:50:19.029Z,48.60
2023-02-14T23:52:46.573Z,46.20
2023-02-14T23:55:13.983Z,44.60
2023-02-14T23:57:41.715Z,52.60
